createdAt,value
2023-02-16T00:00:30.530Z,21.27
2023-02-16T00:02:59.565Z,21.32
2023-02-16T00:05:31.327Z,21.34
2023-02-16T00:08:01.666Z,21.36
2023-02-16T00:10:38.749Z,21.37
2023-02-16T00:13:46.222Z,21.40
2023-02-16T00:16:23.350Z,21.41
2023-02-16T00:18:53.009Z,21.43
2023-02-16T00:21:22.204Z,21.44
2023-02-16T00:23:50.709Z,21.47
2023-02-16T00:26:25.129Z,21.47
2023-02-16T00:29:01.732Z,21.49
2023-02-16T00:31:34.387Z,21.51
2023-02-16T00:34:25.791Z,21.54
2023-02-16T00:36:54.108Z,21.57
2023-02-16T00:39:22.771Z,21.57
2023-02-16T00:41:54.830Z,21.59
2023-02-16T00:44:39.261Z,21.63
2023-02-16T00:47:29.045Z,21.67
2023-02-16T00:49:58.317Z,21.71
2023-02-16T00:52:38.727Z,21.74
2023-02-16T00:55:15.286Z,21.79
2023-02-16T00:57:49.365Z,21.82
2023-02-16T01:00:20.912Z,21.87
2023-02-16T01:02:51.481Z,21.92
2023-02-16T01:05:19.961Z,21.97
2023-02-16T01:08:07.089Z,22.04
2023-02-16T01:10:55.727Z,22.11
2023-02-16T01:13:24.912Z,22.19
2023-02-16T01:15:53.667Z,22.26
2023-02-16T01:18:23.239Z,22.33
2023-02-16T01:20:54.998Z,22.38
2023-02-16T01:23:23.285Z,22.45
2023-02-16T01:25:51.686Z,22.48
2023-02-16T01:28:27.678Z,22.56
2023-02-16T01:30:56.105Z,22.61
2023-02-16T01:33:24.501Z,22.66
2023-02-16T01:35:54.880Z,22.70
2023-02-16T01:38:27.146Z,22.74
2023-02-16T01:41:30.811Z,22.77
2023-02-16T01:44:07.050Z,22.83
2023-02-16T01:46:40.701Z,22.90
2023-02-16T01:49:17.923Z,22.95
2023-02-16T01:52:20.305Z,23.02
2023-02-16T01:54:54.246Z,23.09
2023-02-16T01:57:44.814Z,23.15
2023-02-16T02:00:33.957Z,23.22
2023-02-16T02:03:22.714Z,23.29
2023-02-16T02:05:52.634Z,23.38
2023-02-16T02:08:42.374Z,23.48
2023-02-16T02:11:33.473Z,23.56
2023-02-16T02:14:10.957Z,23.66
2023-02-16T02:16:39.332Z,23.77
2023-02-16T02:19:07.665Z,23.85
2023-02-16T02:22:02.786Z,23.88
2023-02-16T02:25:01.521Z,23.94
2023-02-16T02:28:13.357Z,23.96
2023-02-16T02:30:59.672Z,23.99
2023-02-16T02:34:03.115Z,24.03
2023-02-16T02:36:34.417Z,24.07
2023-02-16T02:39:28.847Z,24.13
2023-02-16T02:42:15.402Z,24.20
2023-02-16T02:45:03.336Z,24.25
2023-02-16T02:47:43.928Z,24.33
2023-02-16T02:50:36.750Z,24.41
2023-02-16T02:53:13.629Z,24.48
2023-02-16T02:56:06.800Z,24.56
2023-02-16T02:59:12.902Z,24.65
2023-02-16T03:01:48.234Z,24.75
2023-02-16T03:04:22.364Z,24.83
2023-02-16T03:06:55.107Z,24.89
2023-02-16T03:09:24.337Z,24.95
2023-02-16T03:12:15.391Z,25.02
2023-02-16T03:14:49.454Z,25.07
2023-02-16T03:17:40.478Z,25.12
2023-02-16T03:20:34.266Z,25.14
2023-02-16T03:23:22.790Z,25.18
2023-02-16T03:26:12.883Z,25.22
2023-02-16T03:29:03.053Z,25.25
2023-02-16T03:31:37.177Z,25.30
2023-02-16T03:34:07.107Z,25.34
2023-02-16T03:36:38.430Z,25.37
2023-02-16T03:39:08.185Z,25.41
2023-02-16T03:41:41.648Z,25.46
2023-02-16T03:44:10.493Z,25.51
2023-02-16T03:46:39.032Z,25.55
2023-02-16T03:49:07.478Z,25.60
2023-02-16T03:51:35.780Z,25.63
2023-02-16T03:54:04.353Z,25.67
2023-02-16T03:56:32.722Z,25.70
2023-02-16T03:59:01.160Z,25.72
2023-02-16T04:01:29.532Z,25.74
2023-02-16T04:03:57.961Z,25.80
2023-02-16T04:06:26.338Z,25.83
2023-02-16T04:08:55.520Z,25.88
2023-02-16T04:11:42.016Z,25.93
2023-02-16T04:14:10.458Z,25.98
2023-02-16T04:16:38.823Z,26.03
2023-02-16T04:19:08.519Z,26.07
2023-02-16T04:21:36.911Z,26.11
2023-02-16T04:24:06.757Z,26.13
2023-02-16T04:26:35.171Z,26.14
2023-02-16T04:29:03.471Z,26.11
2023-02-16T04:31:31.943Z,26.10
2023-02-16T04:34:00.348Z,26.09
2023-02-16T04:36:28.712Z,26.13
2023-02-16T04:38:57.020Z,26.15
2023-02-16T04:41:27.433Z,26.15
2023-02-16T04:43:55.744Z,26.22
2023-02-16T04:46:24.858Z,26.27
2023-02-16T04:48:53.481Z,26.35
2023-02-16T04:51:21.822Z,26.37
2023-02-16T04:53:50.158Z,26.43
2023-02-16T04:56:18.689Z,26.48
2023-02-16T04:58:47.046Z,26.53
2023-02-16T05:01:27.192Z,26.59
2023-02-16T05:03:56.038Z,26.61
2023-02-16T05:06:24.578Z,26.55
2023-02-16T05:08:52.854Z,26.50
2023-02-16T05:11:39.418Z,26.44
2023-02-16T05:14:26.139Z,26.39
2023-02-16T05:16:55.145Z,26.37
2023-02-16T05:19:23.449Z,26.38
2023-02-16T05:21:51.754Z,26.45
2023-02-16T05:24:20.082Z,26.57
2023-02-16T05:26:48.430Z,26.67
2023-02-16T05:29:16.794Z,26.79
2023-02-16T05:31:45.248Z,26.90
2023-02-16T05:34:13.723Z,26.99
2023-02-16T05:36:42.378Z,27.07
2023-02-16T05:39:10.975Z,27.14
2023-02-16T05:41:41.890Z,27.20
2023-02-16T05:44:10.981Z,27.29
2023-02-16T05:46:41.067Z,27.39
2023-02-16T05:49:10.351Z,27.54
2023-02-16T05:51:39.023Z,27.67
2023-02-16T05:54:08.019Z,27.77
2023-02-16T05:56:36.314Z,27.85
2023-02-16T05:59:04.725Z,27.90
2023-02-16T06:01:33.032Z,27.96
2023-02-16T06:04:01.441Z,28.00
2023-02-16T06:06:29.861Z,28.04
2023-02-16T06:08:58.179Z,28.05
2023-02-16T06:11:38.832Z,28.06
2023-02-16T06:14:19.337Z,28.05
2023-02-16T06:16:49.800Z,28.04
2023-02-16T06:19:19.348Z,28.06
2023-02-16T06:21:48.529Z,28.09
2023-02-16T06:24:16.909Z,28.10
2023-02-16T06:26:45.248Z,28.15
2023-02-16T06:29:13.592Z,28.25
2023-02-16T06:31:41.962Z,28.31
2023-02-16T06:34:10.424Z,28.42
2023-02-16T06:36:41.241Z,28.50
2023-02-16T06:39:11.330Z,28.61
2023-02-16T06:41:41.208Z,28.68
2023-02-16T06:44:14.952Z,28.74
2023-02-16T06:46:45.273Z,28.78
2023-02-16T06:49:19.258Z,28.81
2023-02-16T06:51:49.381Z,28.83
2023-02-16T06:54:19.268Z,28.87
2023-02-16T06:56:47.572Z,28.87
2023-02-16T06:59:15.949Z,28.90
2023-02-16T07:01:45.308Z,28.92
2023-02-16T07:04:14.654Z,28.94
2023-02-16T07:06:43.226Z,28.95
2023-02-16T07:09:12.752Z,28.98
2023-02-16T07:11:41.492Z,28.99
2023-02-16T07:14:10.011Z,29.01
2023-02-16T07:16:38.446Z,29.05
2023-02-16T07:19:07.860Z,29.08
2023-02-16T07:21:36.389Z,29.13
2023-02-16T07:24:05.410Z,29.17
2023-02-16T07:26:34.515Z,29.18
2023-02-16T07:29:02.921Z,29.19
2023-02-16T07:31:31.429Z,29.21
2023-02-16T07:33:59.884Z,29.21
2023-02-16T07:36:28.219Z,29.23
2023-02-16T07:38:56.573Z,29.26
2023-02-16T07:41:24.869Z,29.28
2023-02-16T07:43:53.169Z,29.30
2023-02-16T07:46:21.490Z,29.28
2023-02-16T07:48:51.093Z,29.28
2023-02-16T07:51:24.690Z,29.29
2023-02-16T07:53:53.948Z,29.29
2023-02-16T07:56:24.180Z,29.26
2023-02-16T07:58:57.197Z,29.27
2023-02-16T08:01:26.462Z,29.23
2023-02-16T08:03:55.258Z,29.22
2023-02-16T08:06:24.078Z,29.24
2023-02-16T08:08:52.412Z,29.25
2023-02-16T08:11:23.567Z,29.26
2023-02-16T08:13:52.992Z,29.30
2023-02-16T08:16:26.245Z,29.31
2023-02-16T08:18:57.224Z,29.33
2023-02-16T08:21:30.851Z,29.31
2023-02-16T08:24:05.844Z,29.28
2023-02-16T08:26:42.565Z,29.24
2023-02-16T08:29:13.553Z,29.20
2023-02-16T08:31:42.757Z,29.17
2023-02-16T08:34:11.606Z,29.14
2023-02-16T08:36:41.096Z,29.12
2023-02-16T08:39:15.798Z,29.12
2023-02-16T08:41:46.346Z,29.10
2023-02-16T08:44:16.476Z,29.08
2023-02-16T08:46:47.544Z,29.06
2023-02-16T08:49:18.376Z,29.01
2023-02-16T08:51:49.988Z,28.96
2023-02-16T08:54:20.824Z,28.85
2023-02-16T08:56:50.577Z,28.79
2023-02-16T08:59:21.031Z,28.74
2023-02-16T09:01:49.937Z,28.71
2023-02-16T09:04:20.739Z,28.70
2023-02-16T09:06:49.946Z,28.72
2023-02-16T09:09:18.936Z,28.73
2023-02-16T09:11:47.840Z,28.74
2023-02-16T09:14:19.386Z,28.71
2023-02-16T09:16:47.764Z,28.67
2023-02-16T09:19:21.750Z,28.65
2023-02-16T09:21:51.742Z,28.62
2023-02-16T09:24:20.350Z,28.60
2023-02-16T09:26:49.593Z,28.57
2023-02-16T09:29:19.099Z,28.56
2023-02-16T09:31:47.488Z,28.53
2023-02-16T09:34:19.290Z,28.52
2023-02-16T09:36:48.371Z,28.49
2023-02-16T09:39:18.021Z,28.47
2023-02-16T09:42:22.776Z,28.44
2023-02-16T09:44:55.754Z,28.40
2023-02-16T09:47:31.971Z,28.35
2023-02-16T09:50:07.444Z,28.34
2023-02-16T09:52:42.767Z,28.28
2023-02-16T09:55:17.686Z,28.24
2023-02-16T09:58:13.956Z,28.20
2023-02-16T10:00:51.830Z,28.17
2023-02-16T10:03:50.169Z,28.13
2023-02-16T10:06:49.182Z,28.10
2023-02-16T10:09:20.559Z,28.02
2023-02-16T10:12:06.523Z,27.99
2023-02-16T10:14:38.072Z,27.94
2023-02-16T10:17:25.186Z,27.89
2023-02-16T10:20:17.816Z,27.83
2023-02-16T10:23:04.446Z,27.75
2023-02-16T10:25:57.439Z,27.69
2023-02-16T10:28:42.501Z,27.64
2023-02-16T10:31:37.910Z,27.58
2023-02-16T10:34:24.384Z,27.53
2023-02-16T10:37:23.217Z,27.48
2023-02-16T10:40:24.074Z,27.43
2023-02-16T10:43:24.823Z,27.36
2023-02-16T10:45:55.601Z,27.34
2023-02-16T10:48:25.181Z,27.29
2023-02-16T10:51:07.142Z,27.25
2023-02-16T10:53:51.094Z,27.20
2023-02-16T10:56:19.344Z,27.16
2023-02-16T10:58:48.942Z,27.11
2023-02-16T11:01:19.861Z,27.07
2023-02-16T11:03:54.322Z,27.03
2023-02-16T11:06:26.561Z,26.97
2023-02-16T11:08:58.791Z,26.92
2023-02-16T11:11:28.236Z,26.88
2023-02-16T11:14:06.840Z,26.84
2023-02-16T11:16:36.977Z,26.80
2023-02-16T11:19:10.179Z,26.75
2023-02-16T11:21:49.478Z,26.71
2023-02-16T11:24:38.183Z,26.66
2023-02-16T11:27:21.001Z,26.60
2023-02-16T11:29:50.025Z,26.53
2023-02-16T11:32:22.435Z,26.47
2023-02-16T11:34:52.602Z,26.42
2023-02-16T11:37:32.003Z,26.36
2023-02-16T11:40:01.962Z,26.31
2023-02-16T11:42:32.483Z,26.25
2023-02-16T11:45:03.085Z,26.19
2023-02-16T11:47:41.378Z,26.14
2023-02-16T11:50:31.419Z,26.10
2023-02-16T11:53:23.778Z,26.04
2023-02-16T11:55:52.281Z,25.99
2023-02-16T11:58:27.096Z,25.95
2023-02-16T12:01:10.261Z,25.90
2023-02-16T12:03:51.350Z,25.88
2023-02-16T12:06:37.909Z,25.86
2023-02-16T12:09:33.788Z,25.84
2023-02-16T12:12:17.558Z,25.82
2023-02-16T12:15:22.287Z,25.83
2023-02-16T12:18:11.961Z,25.81
2023-02-16T12:21:13.999Z,25.82
2023-02-16T12:24:11.588Z,25.83
2023-02-16T12:27:15.802Z,25.83
2023-02-16T12:29:59.063Z,25.80
2023-02-16T12:32:38.478Z,25.82
2023-02-16T12:35:21.635Z,25.83
2023-02-16T12:38:20.270Z,25.81
2023-02-16T12:41:20.496Z,25.81
2023-02-16T12:44:26.221Z,25.79
2023-02-16T12:47:07.248Z,25.77
2023-02-16T12:49:57.411Z,25.77
2023-02-16T12:52:48.181Z,25.75
2023-02-16T12:55:44.162Z,25.73
2023-02-16T12:58:21.015Z,25.72
2023-02-16T13:01:26.684Z,25.70
2023-02-16T13:04:15.438Z,25.67
2023-02-16T13:06:47.437Z,25.66
2023-02-16T13:09:49.148Z,25.64
2023-02-16T13:12:40.596Z,25.63
2023-02-16T13:15:23.838Z,25.61
2023-02-16T13:18:03.380Z,25.59
2023-02-16T13:20:33.055Z,25.56
2023-02-16T13:23:38.931Z,25.54
2023-02-16T13:26:33.304Z,25.51
2023-02-16T13:29:11.773Z,25.50
2023-02-16T13:31:48.921Z,25.48
2023-02-16T13:34:53.421Z,25.46
2023-02-16T13:37:39.663Z,25.44
2023-02-16T13:40:13.915Z,25.42
2023-02-16T13:43:02.828Z,25.38
2023-02-16T13:45:38.660Z,25.38
2023-02-16T13:48:23.667Z,25.36
2023-02-16T13:51:04.812Z,25.33
2023-02-16T13:53:43.451Z,25.30
2023-02-16T13:56:25.105Z,25.29
2023-02-16T13:58:54.430Z,25.24
2023-02-16T14:01:44.015Z,25.22
2023-02-16T14:04:24.568Z,25.19
2023-02-16T14:07:05.661Z,25.17
2023-02-16T14:09:40.277Z,25.15
2023-02-16T14:12:15.388Z,25.12
2023-02-16T14:14:43.653Z,25.10
2023-02-16T14:17:22.503Z,25.07
2023-02-16T14:20:06.219Z,25.04
2023-02-16T14:22:40.303Z,25.01
2023-02-16T14:25:29.945Z,24.95
2023-02-16T14:28:06.216Z,24.93
2023-02-16T14:30:40.634Z,24.89
2023-02-16T14:33:35.175Z,24.87
2023-02-16T14:36:03.444Z,24.84
2023-02-16T14:38:38.303Z,24.82
2023-02-16T14:41:14.661Z,24.79
2023-02-16T14:43:51.680Z,24.76
2023-02-16T14:46:49.388Z,24.72
2023-02-16T14:49:47.637Z,24.70
2023-02-16T14:52:18.610Z,24.67
2023-02-16T14:55:24.443Z,24.63
2023-02-16T14:57:55.457Z,24.59
2023-02-16T15:00:34.584Z,24.56
2023-02-16T15:03:14.909Z,24.53
2023-02-16T15:05:50.755Z,24.50
2023-02-16T15:08:24.916Z,24.48
2023-02-16T15:10:57.495Z,24.44
2023-02-16T15:13:29.018Z,24.40
2023-02-16T15:16:01.329Z,24.37
2023-02-16T15:18:54.738Z,24.34
2023-02-16T15:21:29.281Z,24.29
2023-02-16T15:24:02.434Z,24.29
2023-02-16T15:26:36.796Z,24.25
2023-02-16T15:29:24.110Z,24.22
2023-02-16T15:31:52.781Z,24.22
2023-02-16T15:34:31.828Z,24.18
2023-02-16T15:37:01.676Z,24.15
2023-02-16T15:39:51.931Z,24.14
2023-02-16T15:42:30.623Z,24.09
2023-02-16T15:44:59.055Z,24.08
2023-02-16T15:47:28.263Z,24.02
2023-02-16T15:49:56.589Z,24.00
2023-02-16T15:52:36.644Z,23.95
2023-02-16T15:55:10.063Z,23.90
2023-02-16T15:57:41.707Z,23.88
2023-02-16T16:00:20.330Z,23.83
2023-02-16T16:02:55.457Z,23.81
2023-02-16T16:05:30.210Z,23.74
2023-02-16T16:07:58.771Z,23.70
2023-02-16T16:10:31.732Z,23.66
2023-02-16T16:13:04.994Z,23.60
2023-02-16T16:15:40.028Z,23.56
2023-02-16T16:18:28.186Z,23.55
2023-02-16T16:21:03.484Z,23.51
2023-02-16T16:23:31.917Z,23.46
2023-02-16T16:26:03.715Z,23.42
2023-02-16T16:28:32.093Z,23.39
2023-02-16T16:31:15.631Z,23.35
2023-02-16T16:34:00.292Z,23.31
2023-02-16T16:36:36.725Z,23.28
2023-02-16T16:39:21.570Z,23.23
2023-02-16T16:42:19.762Z,23.19
2023-02-16T16:45:00.746Z,23.15
2023-02-16T16:47:42.063Z,23.11
2023-02-16T16:50:16.147Z,23.08
2023-02-16T16:52:45.868Z,23.05
2023-02-16T16:55:23.299Z,23.02
2023-02-16T16:57:54.251Z,23.00
2023-02-16T17:00:23.983Z,22.94
2023-02-16T17:02:53.324Z,22.92
2023-02-16T17:05:22.197Z,22.90
2023-02-16T17:07:51.104Z,22.89
2023-02-16T17:10:21.569Z,22.86
2023-02-16T17:12:56.916Z,22.85
2023-02-16T17:16:02.514Z,22.79
2023-02-16T17:18:32.089Z,22.77
2023-02-16T17:21:00.679Z,22.73
2023-02-16T17:23:28.973Z,22.71
2023-02-16T17:25:57.335Z,22.70
2023-02-16T17:28:25.679Z,22.66
2023-02-16T17:30:53.964Z,22.64
2023-02-16T17:33:22.238Z,22.60
2023-02-16T17:35:50.551Z,22.59
2023-02-16T17:38:21.553Z,22.57
2023-02-16T17:40:55.304Z,22.54
2023-02-16T17:43:24.878Z,22.54
2023-02-16T17:45:55.828Z,22.50
2023-02-16T17:48:28.656Z,22.48
2023-02-16T17:51:00.140Z,22.46
2023-02-16T17:53:29.198Z,22.42
2023-02-16T17:55:59.041Z,22.40
2023-02-16T17:58:27.676Z,22.37
2023-02-16T18:00:56.069Z,22.34
2023-02-16T18:03:26.011Z,22.30
2023-02-16T18:05:54.850Z,22.27
2023-02-16T18:08:23.410Z,22.24
2023-02-16T18:10:55.193Z,22.19
2023-02-16T18:13:23.477Z,22.14
2023-02-16T18:15:51.831Z,22.12
2023-02-16T18:18:20.424Z,22.07
2023-02-16T18:20:49.109Z,22.04
2023-02-16T18:23:17.574Z,22.02
2023-02-16T18:25:46.626Z,21.97
2023-02-16T18:28:19.289Z,21.96
2023-02-16T18:30:50.121Z,21.92
2023-02-16T18:33:21.905Z,21.92
2023-02-16T18:35:53.688Z,21.89
2023-02-16T18:38:22.916Z,21.89
2023-02-16T18:40:52.975Z,21.86
2023-02-16T18:43:22.054Z,21.85
2023-02-16T18:45:52.950Z,21.85
2023-02-16T18:48:21.332Z,21.85
2023-02-16T18:50:49.682Z,21.84
2023-02-16T18:53:17.984Z,21.84
2023-02-16T18:55:46.332Z,21.83
2023-02-16T18:58:15.870Z,21.80
2023-02-16T19:00:44.990Z,21.78
2023-02-16T19:03:13.605Z,21.76
2023-02-16T19:05:42.359Z,21.74
2023-02-16T19:08:10.649Z,21.73
2023-02-16T19:10:38.957Z,21.71
2023-02-16T19:13:08.241Z,21.69
2023-02-16T19:15:39.700Z,21.67
2023-02-16T19:18:07.975Z,21.64
2023-02-16T19:20:36.951Z,21.63
2023-02-16T19:23:05.300Z,21.61
2023-02-16T19:25:33.645Z,21.59
2023-02-16T19:28:01.953Z,21.57
2023-02-16T19:30:30.591Z,21.54
2023-02-16T19:32:59.405Z,21.54
2023-02-16T19:35:27.694Z,21.51
2023-02-16T19:37:56.824Z,21.49
2023-02-16T19:40:25.129Z,21.48
2023-02-16T19:42:53.521Z,21.47
2023-02-16T19:45:21.856Z,21.44
2023-02-16T19:47:52.309Z,21.44
2023-02-16T19:50:20.771Z,21.43
2023-02-16T19:52:49.067Z,21.41
2023-02-16T19:55:17.569Z,21.39
2023-02-16T19:57:45.841Z,21.37
2023-02-16T20:00:15.069Z,21.35
2023-02-16T20:02:43.398Z,21.33
2023-02-16T20:05:12.224Z,21.31
2023-02-16T20:07:40.666Z,21.26
2023-02-16T20:10:09.561Z,21.24
2023-02-16T20:12:38.591Z,21.20
2023-02-16T20:15:07.502Z,21.18
2023-02-16T20:17:35.796Z,21.15
2023-02-16T20:20:05.019Z,21.10
2023-02-16T20:22:33.500Z,21.07
2023-02-16T20:25:01.797Z,21.03
2023-02-16T20:27:30.113Z,21.00
2023-02-16T20:29:58.386Z,20.96
2023-02-16T20:32:28.200Z,20.95
2023-02-16T20:34:56.573Z,20.94
2023-02-16T20:37:24.934Z,20.92
2023-02-16T20:39:53.300Z,20.90
2023-02-16T20:42:21.585Z,20.89
2023-02-16T20:44:49.907Z,20.87
2023-02-16T20:47:18.422Z,20.85
2023-02-16T20:49:46.718Z,20.83
2023-02-16T20:52:15.460Z,20.80
2023-02-16T20:54:43.912Z,20.79
2023-02-16T20:57:25.647Z,20.77
2023-02-16T20:59:55.280Z,20.75
2023-02-16T21:02:24.045Z,20.75
2023-02-16T21:04:52.463Z,20.73
2023-02-16T21:07:20.803Z,20.74
2023-02-16T21:09:49.118Z,20.72
2023-02-16T21:12:17.429Z,20.71
2023-02-16T21:14:45.755Z,20.69
2023-02-16T21:17:14.087Z,20.67
2023-02-16T21:19:42.392Z,20.67
2023-02-16T21:22:10.971Z,20.67
2023-02-16T21:24:41.633Z,20.67
2023-02-16T21:27:10.036Z,20.67
2023-02-16T21:29:39.133Z,20.66
2023-02-16T21:32:07.522Z,20.65
2023-02-16T21:34:36.652Z,20.65
2023-02-16T21:37:05.752Z,20.63
2023-02-16T21:39:52.361Z,20.65
2023-02-16T21:42:20.709Z,20.65
2023-02-16T21:44:50.893Z,20.66
2023-02-16T21:47:37.640Z,20.65
2023-02-16T21:50:06.093Z,20.65
2023-02-16T21:52:34.379Z,20.66
2023-02-16T21:55:21.078Z,20.67
2023-02-16T21:57:49.946Z,20.65
2023-02-16T22:00:18.476Z,20.64
2023-02-16T22:02:46.763Z,20.63
2023-02-16T22:05:15.166Z,20.62
2023-02-16T22:07:43.520Z,20.61
2023-02-16T22:10:12.004Z,20.61
2023-02-16T22:12:40.287Z,20.60
2023-02-16T22:15:08.892Z,20.60
2023-02-16T22:17:37.209Z,20.59
2023-02-16T22:20:05.992Z,20.58
2023-02-16T22:22:34.698Z,20.57
2023-02-16T22:25:03.066Z,20.56
2023-02-16T22:27:31.377Z,20.52
2023-02-16T22:29:59.693Z,20.49
2023-02-16T22:32:28.032Z,20.47
2023-02-16T22:34:56.360Z,20.45
2023-02-16T22:37:24.832Z,20.44
2023-02-16T22:39:55.982Z,20.42
2023-02-16T22:42:24.546Z,20.37
2023-02-16T22:44:52.867Z,20.35
2023-02-16T22:47:21.336Z,20.33
2023-02-16T22:49:49.652Z,20.31
2023-02-16T22:52:18.004Z,20.30
2023-02-16T22:54:46.463Z,20.29
2023-02-16T22:57:14.755Z,20.28
2023-02-16T22:59:43.040Z,20.27
2023-02-16T23:02:11.380Z,20.27
2023-02-16T23:04:41.192Z,20.26
2023-02-16T23:07:10.669Z,20.26
2023-02-16T23:09:39.360Z,20.24
2023-02-16T23:12:07.822Z,20.23
2023-02-16T23:14:38.954Z,20.21
2023-02-16T23:17:07.253Z,20.21
2023-02-16T23:19:35.538Z,20.19
2023-02-16T23:22:03.847Z,20.16
2023-02-16T23:24:32.137Z,20.13
2023-02-16T23:27:00.510Z,20.10
2023-02-16T23:29:29.012Z,20.04
2023-02-16T23:31:57.377Z,20.01
2023-02-16T23:34:25.701Z,19.98
2023-02-16T23:36:54.067Z,19.95
2023-02-16T23:39:22.339Z,19.94
2023-02-16T23:41:50.676Z,19.93
2023-02-16T23:44:19.326Z,19.91
2023-02-16T23:46:47.673Z,19.88
2023-02-16T23:49:16.121Z,19.88
2023-02-16T23:51:44.406Z,19.87
2023-02-16T23:54:12.870Z,19.87
2023-02-16T23:56:42.172Z,19.86
2023-02-16T23:59:10.524Z,19.85
